Terminal Aerodrome Forecast
Issued by NWS

Home | Current Version | Previous Version | Text Only | Print | Product List | Glossary On
Versions: 1 2 3 4 5 6 7 8 9 10 11 12 13 14 15
000
FTUS42 KMLB 311700
TAFLEE
TAF
KLEE 311724Z 3118/0118 VRB03KT P6SM SCT035 SCT080
     FM312000 26005KT P6SM SCT050 SCT250
     FM010100 13005KT P6SM SCT070 SCT250
     FM011400 20004KT P6SM FEW020 SCT250=

USA.gov is the U.S. government's official web portal to all federal, state and local government web resources and services.